Time;durP1;ratioP1;P1;durP2;ratioP2;P2;SDS_P1;SDS_P2;PMS_P1;PMS_P2;Temp;Humidity;BMP_temperature;BMP_pressure;BME280_temperature;BME280_humidity;BME280_pressure;Samples;Min_cycle;Max_cycle;Signal;HPM_P1;HPM_P2
2024/01/01 00:00:40;;;;;;;;;;;;;;;;;;4089968;28;1207;-73
2024/01/01 00:03:21;;;;;;;;;;;;;;;;;;4094435;28;1657;-74
2024/01/01 00:05:42;;;;;;;;;;;;;;;;;;4090089;29;1910;-74
2024/01/01 00:08:04;;;;;;;;;;;;;;;;;;4089015;29;1265;-73
2024/01/01 00:10:25;;;;;;;;;;;;;;;;;;4090033;28;1519;-73
2024/01/01 00:12:46;;;;;;;;;;;;;;;;;;4102650;28;1601;-74
2024/01/01 00:15:07;;;;;;;;;;;;;;;;;;4102341;28;1469;-74
2024/01/01 00:17:28;;;;;;;;;;;;;;;;;;4103616;28;1467;-74
2024/01/01 00:19:49;;;;;;;;;;;;;;;;;;4099873;28;1610;-73
2024/01/01 00:22:10;;;;;;;;;;;;;;;;;;4093667;28;934;-74
2024/01/01 00:24:30;;;;;;;;;;;;;;;;;;4105738;28;1910;-74
2024/01/01 00:26:51;;;;;;;;;;;;;;;;;;4074314;29;772;-74
2024/01/01 00:29:12;;;;;;;;;;;;;;;;;;4100299;28;1539;-74
2024/01/01 00:31:33;;;;;;;;;;;;;;;;;;4102339;28;1736;-74
2024/01/01 00:33:54;;;;;;;;;;;;;;;;;;4088994;29;1524;-74
2024/01/01 00:36:15;;;;;;;;;;;;;;;;;;4102680;28;869;-74
2024/01/01 00:38:36;;;;;;;;;;;;;;;;;;4089286;29;1176;-73
2024/01/01 00:40:56;;;;;;;;;;;;;;;;;;4085705;29;1514;-73
2024/01/01 00:43:17;;;;;;;;;;;;;;;;;;4089923;28;1496;-73
2024/01/01 00:45:38;;;;;;;;;;;;;;;;;;4108143;28;1914;-73
2024/01/01 00:47:59;;;;;;;;;;;;;;;;;;4089936;28;1516;-73
2024/01/01 00:50:21;;;;;;;;;;;;;;;;;;4098037;28;1536;-73
2024/01/01 00:52:42;;;;;;;;;;;;;;;;;;4087200;29;1583;-73
2024/01/01 00:55:05;;;;;;;;;;;;;;;;;;4101049;28;1606;-73
2024/01/01 00:57:26;;;;;;;;;;;;;;;;;;4101326;28;1804;-73
2024/01/01 00:59:46;;;;;;;;;;;;;;;;;;4083551;29;1551;-74
2024/01/01 01:02:08;;;;;;;;;;;;;;;;;;4088049;28;1658;-74
2024/01/01 01:04:29;;;;;;;;;;;;;;;;;;4086293;29;1899;-74
2024/01/01 01:06:52;;;;;;;;;;;;;;;;;;4088718;28;1918;-74
2024/01/01 01:09:13;;;;;;;;;;;;;;;;;;4077166;29;1495;-73
2024/01/01 01:11:34;;;;;;;;;;;;;;;;;;4100522;28;1689;-73
2024/01/01 01:13:56;;;;;;;;;;;;;;;;;;4086596;29;1748;-73
2024/01/01 01:16:17;;;;;;;;;;;;;;;;;;4089137;29;1518;-74
2024/01/01 01:18:38;;;;;;;;;;;;;;;;;;4088523;28;1675;-73
2024/01/01 01:20:59;;;;;;;;;;;;;;;;;;4087908;29;1626;-73
2024/01/01 01:23:19;;;;;;;;;;;;;;;;;;4100301;28;1425;-73
2024/01/01 01:25:41;;;;;;;;;;;;;;;;;;4087789;29;2001;-73
2024/01/01 01:28:02;;;;;;;;;;;;;;;;;;4100328;28;1620;-73
2024/01/01 01:30:23;;;;;;;;;;;;;;;;;;4101996;28;1496;-73
2024/01/01 01:32:44;;;;;;;;;;;;;;;;;;4087247;29;1329;-73
2024/01/01 01:35:05;;;;;;;;;;;;;;;;;;4086963;29;1551;-73
2024/01/01 01:37:25;;;;;;;;;;;;;;;;;;4098687;28;1598;-73
2024/01/01 01:39:49;;;;;;;;;;;;;;;;;;4087190;29;1323;-73
2024/01/01 01:42:10;;;;;;;;;;;;;;;;;;4098738;28;1608;-73
2024/01/01 01:44:31;;;;;;;;;;;;;;;;;;4091662;28;1581;-74
2024/01/01 01:46:52;;;;;;;;;;;;;;;;;;4088689;29;853;-74
2024/01/01 01:49:13;;;;;;;;;;;;;;;;;;4102315;28;814;-73
2024/01/01 01:51:34;;;;;;;;;;;;;;;;;;4115117;28;1503;-73
2024/01/01 01:53:54;;;;;;;;;;;;;;;;;;4089945;28;1417;-73
2024/01/01 01:56:17;;;;;;;;;;;;;;;;;;4101968;28;1571;-73
2024/01/01 01:58:40;;;;;;;;;;;;;;;;;;4101626;28;860;-74
2024/01/01 02:04:15;;;;;;;;;;;;;;;;;;4089093;28;3344;-73
2024/01/01 02:06:36;;;;;;;;;;;;;;;;;;4114107;28;1922;-73
2024/01/01 02:08:57;;;;;;;;;;;;;;;;;;4088036;29;1399;-74
2024/01/01 02:11:17;;;;;;;;;;;;;;;;;;4098648;28;985;-73
2024/01/01 02:13:39;;;;;;;;;;;;;;;;;;4091856;28;3777;-74
2024/01/01 02:16:00;;;;;;;;;;;;;;;;;;4087279;29;1614;-73
2024/01/01 02:18:21;;;;;;;;;;;;;;;;;;4087179;29;1484;-74
2024/01/01 02:20:41;;;;;;;;;;;;;;;;;;4100093;28;969;-74
2024/01/01 02:23:02;;;;;;;;;;;;;;;;;;4088142;29;2579;-73
2024/01/01 02:25:23;;;;;;;;;;;;;;;;;;4099662;28;1914;-74
2024/01/01 02:27:45;;;;;;;;;;;;;;;;;;4087427;29;1516;-73
2024/01/01 02:30:10;;;;;;;;;;;;;;;;;;4100608;28;962;-74
2024/01/01 02:32:31;;;;;;;;;;;;;;;;;;4089044;29;904;-74
2024/01/01 02:34:52;;;;;;;;;;;;;;;;;;4100187;28;4340;-73
2024/01/01 02:37:13;;;;;;;;;;;;;;;;;;4101618;28;1022;-73
2024/01/01 02:39:33;;;;;;;;;;;;;;;;;;4088578;29;897;-74
2024/01/01 02:41:54;;;;;;;;;;;;;;;;;;4089213;29;979;-73
2024/01/01 02:44:17;;;;;;;;;;;;;;;;;;4087352;29;1712;-73
2024/01/01 02:46:38;;;;;;;;;;;;;;;;;;4101992;28;1911;-73
2024/01/01 02:48:59;;;;;;;;;;;;;;;;;;4090553;29;1663;-73
2024/01/01 02:51:20;;;;;;;;;;;;;;;;;;4091463;29;933;-74
2024/01/01 02:53:41;;;;;;;;;;;;;;;;;;4091609;28;1996;-73
2024/01/01 02:56:02;;;;;;;;;;;;;;;;;;4104072;28;1531;-73
2024/01/01 02:58:24;;;;;;;;;;;;;;;;;;4091253;29;1468;-73
2024/01/01 03:00:47;;;;;;;;;;;;;;;;;;4103984;28;813;-73
2024/01/01 03:03:07;;;;;;;;;;;;;;;;;;4091686;29;894;-74
2024/01/01 03:05:28;;;;;;;;;;;;;;;;;;4103437;28;1993;-74
2024/01/01 03:07:51;;;;;;;;;;;;;;;;;;4090596;29;1382;-74
2024/01/01 03:10:11;;;;;;;;;;;;;;;;;;4091616;28;764;-73
2024/01/01 03:12:33;;;;;;;;;;;;;;;;;;4102769;28;783;-73
2024/01/01 03:14:54;;;;;;;;;;;;;;;;;;4102859;28;1831;-73
2024/01/01 03:17:15;;;;;;;;;;;;;;;;;;4076056;29;1105;-74
2024/01/01 03:19:36;;;;;;;;;;;;;;;;;;4090690;28;1196;-73
2024/01/01 03:21:57;;;;;;;;;;;;;;;;;;4088926;29;968;-73
2024/01/01 03:24:18;;;;;;;;;;;;;;;;;;4090490;29;1697;-73
2024/01/01 03:26:38;;;;;;;;;;;;;;;;;;4090373;29;1915;-73
2024/01/01 03:29:00;;;;;;;;;;;;;;;;;;4116115;28;1240;-73
2024/01/01 03:31:21;;;;;;;;;;;;;;;;;;4090793;29;846;-73
2024/01/01 03:33:45;;;;;;;;;;;;;;;;;;4089109;29;1500;-73
2024/01/01 03:36:06;;;;;;;;;;;;;;;;;;4102090;28;1499;-73
2024/01/01 03:38:27;;;;;;;;;;;;;;;;;;4090041;29;1549;-73
2024/01/01 03:40:48;;;;;;;;;;;;;;;;;;4089896;29;1049;-73
2024/01/01 03:43:09;;;;;;;;;;;;;;;;;;4089331;28;844;-73
2024/01/01 03:45:30;;;;;;;;;;;;;;;;;;4090111;29;1980;-73
2024/01/01 03:47:51;;;;;;;;;;;;;;;;;;4089855;29;785;-73
2024/01/01 03:50:14;;;;;;;;;;;;;;;;;;4103401;28;813;-74
2024/01/01 03:52:36;;;;;;;;;;;;;;;;;;4090154;28;818;-74
2024/01/01 03:54:57;;;;;;;;;;;;;;;;;;4089713;28;1484;-74
2024/01/01 03:57:18;;;;;;;;;;;;;;;;;;4090760;29;1220;-74
2024/01/01 03:59:39;;;;;;;;;;;;;;;;;;4089157;29;1240;-73
2024/01/01 04:02:00;;;;;;;;;;;;;;;;;;4089944;29;1004;-74
2024/01/01 04:04:21;;;;;;;;;;;;;;;;;;4103114;28;1751;-74
2024/01/01 04:06:42;;;;;;;;;;;;;;;;;;4090562;29;1910;-73
2024/01/01 04:09:03;;;;;;;;;;;;;;;;;;4103747;28;776;-73
2024/01/01 04:11:24;;;;;;;;;;;;;;;;;;4091026;29;785;-74
2024/01/01 04:13:44;;;;;;;;;;;;;;;;;;4090495;29;1117;-73
2024/01/01 04:16:08;;;;;;;;;;;;;;;;;;4109143;28;1437;-73
2024/01/01 04:18:29;;;;;;;;;;;;;;;;;;4090770;29;893;-74
2024/01/01 04:20:50;;;;;;;;;;;;;;;;;;4090424;29;796;-73
2024/01/01 04:23:10;;;;;;;;;;;;;;;;;;4090768;29;745;-73
2024/01/01 04:25:32;;;;;;;;;;;;;;;;;;4090465;29;1772;-73
2024/01/01 04:27:52;;;;;;;;;;;;;;;;;;4090349;28;1431;-73
2024/01/01 04:30:14;;;;;;;;;;;;;;;;;;4090560;28;1148;-73
2024/01/01 04:32:34;;;;;;;;;;;;;;;;;;4090997;29;756;-73
2024/01/01 04:34:56;;;;;;;;;;;;;;;;;;4090261;28;1547;-73
2024/01/01 04:37:17;;;;;;;;;;;;;;;;;;4089525;29;1046;-73
2024/01/01 04:39:38;;;;;;;;;;;;;;;;;;4090568;29;819;-73
2024/01/01 04:41:59;;;;;;;;;;;;;;;;;;4090473;28;1118;-74
2024/01/01 04:44:20;;;;;;;;;;;;;;;;;;4090466;29;1144;-73
2024/01/01 04:46:41;;;;;;;;;;;;;;;;;;4103116;28;1898;-73
2024/01/01 04:49:02;;;;;;;;;;;;;;;;;;4102707;28;951;-74
2024/01/01 04:51:23;;;;;;;;;;;;;;;;;;4089834;28;1058;-74
2024/01/01 04:53:44;;;;;;;;;;;;;;;;;;4102552;28;788;-73
2024/01/01 04:56:05;;;;;;;;;;;;;;;;;;4090143;29;1599;-74
2024/01/01 04:58:26;;;;;;;;;;;;;;;;;;4090121;29;803;-74
2024/01/01 05:00:48;;;;;;;;;;;;;;;;;;4102183;28;968;-74
2024/01/01 05:03:09;;;;;;;;;;;;;;;;;;4102001;28;1132;-74
2024/01/01 05:05:30;;;;;;;;;;;;;;;;;;4089946;29;1413;-74
2024/01/01 05:07:52;;;;;;;;;;;;;;;;;;4102274;28;1915;-74
2024/01/01 05:10:12;;;;;;;;;;;;;;;;;;4088562;29;843;-74
2024/01/01 05:12:33;;;;;;;;;;;;;;;;;;4101576;28;852;-73
2024/01/01 05:14:53;;;;;;;;;;;;;;;;;;4089102;29;1839;-74
2024/01/01 05:17:15;;;;;;;;;;;;;;;;;;4089795;28;1427;-74
2024/01/01 05:19:35;;;;;;;;;;;;;;;;;;4090055;29;856;-74
2024/01/01 05:21:56;;;;;;;;;;;;;;;;;;4090184;29;880;-73
2024/01/01 05:24:17;;;;;;;;;;;;;;;;;;4090006;29;800;-74
2024/01/01 05:26:38;;;;;;;;;;;;;;;;;;4088653;29;1911;-74
2024/01/01 05:28:59;;;;;;;;;;;;;;;;;;4089001;29;730;-73
2024/01/01 05:31:21;;;;;;;;;;;;;;;;;;4088886;29;785;-73
2024/01/01 05:33:41;;;;;;;;;;;;;;;;;;4102297;28;772;-73
2024/01/01 05:36:02;;;;;;;;;;;;;;;;;;4089572;29;1504;-73
2024/01/01 05:38:23;;;;;;;;;;;;;;;;;;4089759;29;1598;-74
2024/01/01 05:40:45;;;;;;;;;;;;;;;;;;4089881;29;762;-73
2024/01/01 05:43:07;;;;;;;;;;;;;;;;;;4088476;29;895;-73
2024/01/01 05:45:28;;;;;;;;;;;;;;;;;;4089471;28;1453;-73
2024/01/01 05:47:49;;;;;;;;;;;;;;;;;;4088846;29;1910;-73
2024/01/01 05:50:12;;;;;;;;;;;;;;;;;;4089897;28;971;-73
2024/01/01 05:52:33;;;;;;;;;;;;;;;;;;4089782;29;930;-73
2024/01/01 05:54:54;;;;;;;;;;;;;;;;;;4089654;29;1598;-73
2024/01/01 05:57:15;;;;;;;;;;;;;;;;;;4089597;29;1412;-73
2024/01/01 05:59:36;;;;;;;;;;;;;;;;;;4075597;29;778;-73
2024/01/01 06:01:57;;;;;;;;;;;;;;;;;;4089465;28;1004;-74
2024/01/01 06:04:19;;;;;;;;;;;;;;;;;;4088280;29;950;-73
2024/01/01 06:06:41;;;;;;;;;;;;;;;;;;4089352;29;1902;-73
2024/01/01 06:09:03;;;;;;;;;;;;;;;;;;4085947;29;762;-74
2024/01/01 06:11:24;;;;;;;;;;;;;;;;;;4099563;28;856;-73
2024/01/01 06:13:46;;;;;;;;;;;;;;;;;;4073336;29;905;-73
2024/01/01 06:16:08;;;;;;;;;;;;;;;;;;4084774;29;1782;-73
2024/01/01 06:18:29;;;;;;;;;;;;;;;;;;4101248;28;1621;-73
2024/01/01 06:20:50;;;;;;;;;;;;;;;;;;4087979;29;811;-73
2024/01/01 06:23:12;;;;;;;;;;;;;;;;;;4088511;28;1219;-73
2024/01/01 06:25:33;;;;;;;;;;;;;;;;;;4091895;28;1435;-73
2024/01/01 06:27:54;;;;;;;;;;;;;;;;;;4091951;29;1997;-73
2024/01/01 06:30:15;;;;;;;;;;;;;;;;;;4092174;29;806;-73
2024/01/01 06:32:36;;;;;;;;;;;;;;;;;;4092357;29;997;-73
2024/01/01 06:34:57;;;;;;;;;;;;;;;;;;4104213;28;1871;-73
2024/01/01 06:37:18;;;;;;;;;;;;;;;;;;4104422;28;1325;-73
2024/01/01 06:39:39;;;;;;;;;;;;;;;;;;4091252;29;883;-73
2024/01/01 06:42:00;;;;;;;;;;;;;;;;;;4090623;29;944;-73
2024/01/01 06:44:25;;;;;;;;;;;;;;;;;;4091834;28;1027;-73
2024/01/01 06:46:46;;;;;;;;;;;;;;;;;;4091726;29;1985;-73
2024/01/01 06:49:07;;;;;;;;;;;;;;;;;;4091909;29;815;-73
2024/01/01 06:51:28;;;;;;;;;;;;;;;;;;4091962;29;854;-73
2024/01/01 06:53:49;;;;;;;;;;;;;;;;;;4091716;29;781;-73
2024/01/01 06:56:10;;;;;;;;;;;;;;;;;;4090887;29;1946;-73
2024/01/01 06:58:31;;;;;;;;;;;;;;;;;;4091532;29;1249;-73
2024/01/01 07:00:53;;;;;;;;;;;;;;;;;;4092421;29;733;-73
2024/01/01 07:03:14;;;;;;;;;;;;;;;;;;4092414;29;774;-73
2024/01/01 07:05:35;;;;;;;;;;;;;;;;;;4091583;29;1443;-73
2024/01/01 07:07:55;;;;;;;;;;;;;;;;;;4090267;29;1910;-73
2024/01/01 07:10:16;;;;;;;;;;;;;;;;;;4091682;29;740;-73
2024/01/01 07:12:37;;;;;;;;;;;;;;;;;;4091642;28;1103;-73
2024/01/01 07:14:58;;;;;;;;;;;;;;;;;;4091580;28;936;-73
2024/01/01 07:17:19;;;;;;;;;;;;;;;;;;4090009;28;1476;-73
2024/01/01 07:19:40;;;;;;;;;;;;;;;;;;4103980;28;797;-74
2024/01/01 07:22:02;;;;;;;;;;;;;;;;;;4103564;28;1015;-73
2024/01/01 07:24:23;;;;;;;;;;;;;;;;;;4091070;29;979;-73
2024/01/01 07:26:44;;;;;;;;;;;;;;;;;;4091114;28;1404;-73
2024/01/01 07:29:06;;;;;;;;;;;;;;;;;;4091251;29;1158;-74
2024/01/01 07:31:27;;;;;;;;;;;;;;;;;;4091157;29;898;-74
2024/01/01 07:33:49;;;;;;;;;;;;;;;;;;4091266;29;827;-74
2024/01/01 07:36:10;;;;;;;;;;;;;;;;;;4090113;29;1517;-74
2024/01/01 07:38:31;;;;;;;;;;;;;;;;;;4090997;29;1211;-74
2024/01/01 07:40:51;;;;;;;;;;;;;;;;;;4091218;29;730;-74
2024/01/01 07:43:12;;;;;;;;;;;;;;;;;;4090033;28;825;-74
2024/01/01 07:45:35;;;;;;;;;;;;;;;;;;4091068;29;1727;-74
2024/01/01 07:47:56;;;;;;;;;;;;;;;;;;4091044;29;1910;-74
2024/01/01 07:50:19;;;;;;;;;;;;;;;;;;4091734;29;1140;-73
2024/01/01 07:52:40;;;;;;;;;;;;;;;;;;4090105;29;845;-73
2024/01/01 07:55:01;;;;;;;;;;;;;;;;;;4091272;28;943;-73
2024/01/01 07:57:22;;;;;;;;;;;;;;;;;;4100709;28;1530;-73
2024/01/01 07:59:43;;;;;;;;;;;;;;;;;;4087621;29;796;-73
2024/01/01 08:02:05;;;;;;;;;;;;;;;;;;4075550;29;788;-74
2024/01/01 08:04:26;;;;;;;;;;;;;;;;;;4075241;29;916;-73
2024/01/01 08:06:47;;;;;;;;;;;;;;;;;;4083710;29;2090;-73
2024/01/01 08:09:07;;;;;;;;;;;;;;;;;;4090728;28;1453;-73
2024/01/01 08:11:28;;;;;;;;;;;;;;;;;;4090716;29;855;-73
2024/01/01 08:13:49;;;;;;;;;;;;;;;;;;4089673;28;862;-73
2024/01/01 08:16:10;;;;;;;;;;;;;;;;;;4090664;28;2107;-73
2024/01/01 08:18:30;;;;;;;;;;;;;;;;;;4090616;28;1210;-72
2024/01/01 08:20:51;;;;;;;;;;;;;;;;;;4102713;28;1043;-72
2024/01/01 08:23:12;;;;;;;;;;;;;;;;;;4090017;28;891;-73
2024/01/01 08:25:33;;;;;;;;;;;;;;;;;;4090682;29;899;-73
2024/01/01 08:27:54;;;;;;;;;;;;;;;;;;4089094;29;1903;-73
2024/01/01 08:30:15;;;;;;;;;;;;;;;;;;4090680;29;780;-73
2024/01/01 08:32:36;;;;;;;;;;;;;;;;;;4090757;29;793;-73
2024/01/01 08:34:57;;;;;;;;;;;;;;;;;;4102954;28;771;-73
2024/01/01 08:37:18;;;;;;;;;;;;;;;;;;4102597;28;1483;-73
2024/01/01 08:39:41;;;;;;;;;;;;;;;;;;4090205;28;1511;-73
2024/01/01 08:42:01;;;;;;;;;;;;;;;;;;4090417;29;784;-73
2024/01/01 08:44:24;;;;;;;;;;;;;;;;;;4090431;29;833;-73
2024/01/01 08:46:45;;;;;;;;;;;;;;;;;;4089899;28;1199;-73
2024/01/01 08:49:05;;;;;;;;;;;;;;;;;;4090235;29;1914;-73
2024/01/01 08:51:26;;;;;;;;;;;;;;;;;;4089118;29;811;-73
2024/01/01 08:53:47;;;;;;;;;;;;;;;;;;4089173;29;815;-73
2024/01/01 08:56:08;;;;;;;;;;;;;;;;;;4089932;28;1693;-73
2024/01/01 08:58:30;;;;;;;;;;;;;;;;;;4090150;29;1657;-73
2024/01/01 09:00:50;;;;;;;;;;;;;;;;;;4090189;29;825;-73
2024/01/01 09:03:11;;;;;;;;;;;;;;;;;;4088555;29;1022;-73
2024/01/01 09:05:32;;;;;;;;;;;;;;;;;;4102481;28;846;-73
2024/01/01 09:07:53;;;;;;;;;;;;;;;;;;4088768;28;1995;-73
2024/01/01 09:10:12;;;;;;;;;;;;;;;;;;4090230;29;783;-73
2024/01/01 09:12:33;;;;;;;;;;;;;;;;;;4090026;28;951;-73
2024/01/01 09:14:54;;;;;;;;;;;;;;;;;;4090128;29;778;-73
2024/01/01 09:17:15;;;;;;;;;;;;;;;;;;4101755;28;1505;-73
2024/01/01 09:19:37;;;;;;;;;;;;;;;;;;4089928;29;1603;-73
2024/01/01 09:21:59;;;;;;;;;;;;;;;;;;4075613;29;855;-73
2024/01/01 09:24:19;;;;;;;;;;;;;;;;;;4090039;28;843;-73
2024/01/01 09:26:41;;;;;;;;;;;;;;;;;;4089976;29;1748;-73
2024/01/01 09:29:01;;;;;;;;;;;;;;;;;;4102097;28;2001;-73
2024/01/01 09:31:22;;;;;;;;;;;;;;;;;;4089820;29;920;-73
2024/01/01 09:33:43;;;;;;;;;;;;;;;;;;4088797;28;864;-73
2024/01/01 09:36:05;;;;;;;;;;;;;;;;;;4089240;29;820;-73
2024/01/01 09:38:26;;;;;;;;;;;;;;;;;;4089543;28;1553;-73
2024/01/01 09:40:47;;;;;;;;;;;;;;;;;;4089608;28;814;-73
2024/01/01 09:43:07;;;;;;;;;;;;;;;;;;4089710;29;912;-73
2024/01/01 09:45:28;;;;;;;;;;;;;;;;;;4089828;29;856;-73
2024/01/01 09:47:49;;;;;;;;;;;;;;;;;;4089263;28;1906;-73
2024/01/01 09:50:10;;;;;;;;;;;;;;;;;;4089688;29;1496;-73
2024/01/01 09:52:31;;;;;;;;;;;;;;;;;;4099720;28;2331;-73
2024/01/01 09:54:52;;;;;;;;;;;;;;;;;;4098634;28;746;-73
2024/01/01 09:57:13;;;;;;;;;;;;;;;;;;4089978;29;1537;-73
2024/01/01 09:59:33;;;;;;;;;;;;;;;;;;4093447;29;1688;-73
2024/01/01 10:01:55;;;;;;;;;;;;;;;;;;4093745;28;972;-72
2024/01/01 10:04:16;;;;;;;;;;;;;;;;;;4092917;29;734;-73
2024/01/01 10:06:38;;;;;;;;;;;;;;;;;;4091420;28;1973;-73
2024/01/01 10:08:59;;;;;;;;;;;;;;;;;;4090928;28;1906;-73
2024/01/01 10:11:20;;;;;;;;;;;;;;;;;;4092995;28;1238;-73
2024/01/01 10:13:40;;;;;;;;;;;;;;;;;;4091381;29;1489;-73
2024/01/01 10:16:01;;;;;;;;;;;;;;;;;;4089104;28;1311;-73
2024/01/01 10:18:22;;;;;;;;;;;;;;;;;;4091972;28;1413;-73
2024/01/01 10:20:43;;;;;;;;;;;;;;;;;;4088086;29;1217;-73
2024/01/01 10:23:05;;;;;;;;;;;;;;;;;;4097027;28;1038;-73
2024/01/01 10:25:25;;;;;;;;;;;;;;;;;;4106548;28;1265;-72
2024/01/01 10:27:47;;;;;;;;;;;;;;;;;;4092045;29;1411;-71
2024/01/01 10:30:08;;;;;;;;;;;;;;;;;;4088437;28;1730;-74
2024/01/01 10:32:29;;;;;;;;;;;;;;;;;;4080465;28;1604;-71
2024/01/01 10:34:49;;;;;;;;;;;;;;;;;;4090541;29;1388;-73
2024/01/01 10:37:11;;;;;;;;;;;;;;;;;;4090402;29;1815;-73
2024/01/01 10:39:31;;;;;;;;;;;;;;;;;;4092119;28;1841;-73
2024/01/01 10:41:52;;;;;;;;;;;;;;;;;;4089612;29;1792;-71
2024/01/01 10:44:13;;;;;;;;;;;;;;;;;;4091337;28;1573;-73
2024/01/01 10:46:35;;;;;;;;;;;;;;;;;;4090536;29;1713;-73
2024/01/01 10:48:56;;;;;;;;;;;;;;;;;;4104496;28;1906;-73
2024/01/01 10:51:17;;;;;;;;;;;;;;;;;;4086206;28;2433;-73
2024/01/01 10:53:38;;;;;;;;;;;;;;;;;;4087620;28;2320;-74
2024/01/01 10:55:59;;;;;;;;;;;;;;;;;;4088059;29;1959;-72
2024/01/01 10:58:19;;;;;;;;;;;;;;;;;;4089908;28;1779;-73
2024/01/01 11:00:41;;;;;;;;;;;;;;;;;;4087642;28;1895;-72
2024/01/01 11:03:01;;;;;;;;;;;;;;;;;;4088909;29;1835;-72
2024/01/01 11:05:22;;;;;;;;;;;;;;;;;;4090062;29;1596;-71
2024/01/01 11:07:42;;;;;;;;;;;;;;;;;;4090782;29;1507;-71
2024/01/01 11:10:03;;;;;;;;;;;;;;;;;;4103143;28;1907;-73
2024/01/01 11:12:24;;;;;;;;;;;;;;;;;;4090989;29;889;-73
2024/01/01 11:14:48;;;;;;;;;;;;;;;;;;4090452;29;1523;-72
2024/01/01 11:17:10;;;;;;;;;;;;;;;;;;4089687;29;1271;-73
2024/01/01 11:19:31;;;;;;;;;;;;;;;;;;4116653;28;1599;-73
2024/01/01 11:21:52;;;;;;;;;;;;;;;;;;4090429;29;965;-72
2024/01/01 11:24:13;;;;;;;;;;;;;;;;;;4081751;29;2046;-73
2024/01/01 11:26:34;;;;;;;;;;;;;;;;;;4112189;28;1555;-72
2024/01/01 11:28:55;;;;;;;;;;;;;;;;;;4083984;29;1985;-72
2024/01/01 11:31:16;;;;;;;;;;;;;;;;;;4086518;29;1969;-73
2024/01/01 11:33:37;;;;;;;;;;;;;;;;;;4077097;29;1709;-71
2024/01/01 11:35:58;;;;;;;;;;;;;;;;;;4090963;28;1885;-72
2024/01/01 11:38:19;;;;;;;;;;;;;;;;;;4081752;29;1768;-72
2024/01/01 11:40:40;;;;;;;;;;;;;;;;;;4083519;29;1783;-71
2024/01/01 11:43:02;;;;;;;;;;;;;;;;;;4083992;28;1761;-72
2024/01/01 11:45:22;;;;;;;;;;;;;;;;;;4085633;29;1480;-74
2024/01/01 11:47:43;;;;;;;;;;;;;;;;;;4083854;29;2098;-72
2024/01/01 11:50:04;;;;;;;;;;;;;;;;;;4093741;28;1975;-73
2024/01/01 11:52:25;;;;;;;;;;;;;;;;;;4084595;29;1832;-69
2024/01/01 11:54:46;;;;;;;;;;;;;;;;;;4089705;29;1872;-69
2024/01/01 11:57:07;;;;;;;;;;;;;;;;;;4090921;29;1643;-69
2024/01/01 11:59:27;;;;;;;;;;;;;;;;;;4102728;28;1852;-67
2024/01/01 12:01:48;;;;;;;;;;;;;;;;;;4104258;28;2048;-69
2024/01/01 12:04:09;;;;;;;;;;;;;;;;;;4090629;28;1831;-68
2024/01/01 12:06:30;;;;;;;;;;;;;;;;;;4080721;29;1665;-69
2024/01/01 12:08:51;;;;;;;;;;;;;;;;;;4112863;28;1963;-68
2024/01/01 12:11:12;;;;;;;;;;;;;;;;;;4085987;28;1725;-68
2024/01/01 12:13:33;;;;;;;;;;;;;;;;;;4083542;29;1765;-69
2024/01/01 12:15:54;;;;;;;;;;;;;;;;;;4081808;29;1590;-69
2024/01/01 12:18:17;;;;;;;;;;;;;;;;;;4086010;28;1914;-67
2024/01/01 12:20:38;;;;;;;;;;;;;;;;;;4087948;28;1954;-68
2024/01/01 12:22:58;;;;;;;;;;;;;;;;;;4074922;29;1582;-67
2024/01/01 12:25:19;;;;;;;;;;;;;;;;;;4090000;28;948;-68
2024/01/01 12:27:48;;;;;;;;;;;;;;;;;;4086496;29;1789;-68
2024/01/01 12:30:09;;;;;;;;;;;;;;;;;;4081238;29;1906;-68
2024/01/01 12:32:29;;;;;;;;;;;;;;;;;;4073786;29;804;-68
2024/01/01 12:34:50;;;;;;;;;;;;;;;;;;4075138;29;1753;-67
2024/01/01 12:37:11;;;;;;;;;;;;;;;;;;4105486;28;1769;-67
2024/01/01 12:39:32;;;;;;;;;;;;;;;;;;4087622;28;1715;-68
2024/01/01 12:41:54;;;;;;;;;;;;;;;;;;4074844;29;1702;-68
2024/01/01 12:44:15;;;;;;;;;;;;;;;;;;4085739;28;1627;-68
2024/01/01 12:46:36;;;;;;;;;;;;;;;;;;4076924;29;1845;-67
2024/01/01 12:48:58;;;;;;;;;;;;;;;;;;4086341;29;2020;-68
2024/01/01 12:51:18;;;;;;;;;;;;;;;;;;4088730;29;1800;-68
2024/01/01 12:53:39;;;;;;;;;;;;;;;;;;4076659;28;1631;-68
2024/01/01 12:56:00;;;;;;;;;;;;;;;;;;4087822;28;2501;-67
2024/01/01 12:58:21;;;;;;;;;;;;;;;;;;4084267;28;1722;-67
2024/01/01 13:00:42;;;;;;;;;;;;;;;;;;4091532;28;1717;-67
2024/01/01 13:03:03;;;;;;;;;;;;;;;;;;4097036;28;1863;-68
2024/01/01 13:05:27;;;;;;;;;;;;;;;;;;4085971;28;815;-68
2024/01/01 13:07:48;;;;;;;;;;;;;;;;;;4075283;29;933;-71
2024/01/01 13:10:09;;;;;;;;;;;;;;;;;;4089263;29;1907;-70
2024/01/01 13:12:30;;;;;;;;;;;;;;;;;;4089164;29;1079;-69
2024/01/01 13:14:50;;;;;;;;;;;;;;;;;;4075969;29;1079;-69
2024/01/01 13:17:11;;;;;;;;;;;;;;;;;;4076757;29;1080;-69
2024/01/01 13:19:32;;;;;;;;;;;;;;;;;;4077297;29;1062;-69
2024/01/01 13:21:53;;;;;;;;;;;;;;;;;;4075713;29;1020;-69
2024/01/01 13:24:14;;;;;;;;;;;;;;;;;;4079554;29;1219;-68
2024/01/01 13:26:35;;;;;;;;;;;;;;;;;;4092385;29;1002;-69
2024/01/01 13:28:56;;;;;;;;;;;;;;;;;;4092298;28;1053;-69
2024/01/01 13:31:18;;;;;;;;;;;;;;;;;;4076672;29;979;-69
2024/01/01 13:33:39;;;;;;;;;;;;;;;;;;4075784;29;1043;-69
2024/01/01 13:36:02;;;;;;;;;;;;;;;;;;4076638;29;1020;-69
2024/01/01 13:38:22;;;;;;;;;;;;;;;;;;4076641;29;995;-69
2024/01/01 13:40:43;;;;;;;;;;;;;;;;;;4088109;29;1489;-69
2024/01/01 13:43:04;;;;;;;;;;;;;;;;;;4092350;29;995;-69
2024/01/01 13:45:25;;;;;;;;;;;;;;;;;;4090720;29;928;-70
2024/01/01 13:47:47;;;;;;;;;;;;;;;;;;4091201;28;1127;-70
2024/01/01 13:50:08;;;;;;;;;;;;;;;;;;4101791;28;1910;-70
2024/01/01 13:52:31;;;;;;;;;;;;;;;;;;4107739;28;743;-69
2024/01/01 13:54:52;;;;;;;;;;;;;;;;;;4100733;28;1060;-69
2024/01/01 13:57:13;;;;;;;;;;;;;;;;;;4091946;28;1483;-69
2024/01/01 13:59:34;;;;;;;;;;;;;;;;;;4091794;28;1208;-69
2024/01/01 14:01:55;;;;;;;;;;;;;;;;;;4091722;29;1231;-69
2024/01/01 14:04:16;;;;;;;;;;;;;;;;;;4091883;29;801;-69
2024/01/01 14:06:36;;;;;;;;;;;;;;;;;;4091669;29;812;-70
2024/01/01 14:08:57;;;;;;;;;;;;;;;;;;4100112;28;1514;-71
2024/01/01 14:11:18;;;;;;;;;;;;;;;;;;4088507;28;1918;-70
2024/01/01 14:13:41;;;;;;;;;;;;;;;;;;4087656;29;1520;-71
2024/01/01 14:16:02;;;;;;;;;;;;;;;;;;4089191;29;1850;-71
2024/01/01 14:18:23;;;;;;;;;;;;;;;;;;4089722;29;814;-71
2024/01/01 14:20:44;;;;;;;;;;;;;;;;;;4090075;29;1497;-71
2024/01/01 14:23:05;;;;;;;;;;;;;;;;;;4102313;28;959;-71
2024/01/01 14:25:26;;;;;;;;;;;;;;;;;;4089748;29;1121;-70
2024/01/01 14:27:49;;;;;;;;;;;;;;;;;;4089332;29;838;-71
2024/01/01 14:30:10;;;;;;;;;;;;;;;;;;4090079;28;1996;-71
2024/01/01 14:32:31;;;;;;;;;;;;;;;;;;4100524;28;1488;-65
2024/01/01 14:35:10;;;;;;;;;;;;;;;;;;4235432;27;1330;-65
2024/01/01 14:37:31;;;;;;;;;;;;;;;;;;4235473;27;988;-64
2024/01/01 14:39:54;;;;;;;;;;;;;;;;;;4235390;28;1704;-62
2024/01/01 14:42:15;;;;;;;;;;;;;;;;;;4234130;28;1882;-63
2024/01/01 14:44:36;;;;;;;;;;;;;;;;;;4234857;28;849;-62
2024/01/01 14:46:57;;;;;;;;;;;;;;;;;;4233902;28;1488;-64
2024/01/01 18:59:33;;;;;;;;;;;;;;;;;;4211893;27;2093;-57
2024/01/01 19:01:53;;;;;;;;;;;;;;;;;;4168759;28;1856;-57
2024/01/01 19:04:14;;;;;;;;;;;;;;;;;;4176902;28;1942;-67
2024/01/01 19:06:35;;;;;;;;;;;;;;;;;;4165477;28;1966;-56
2024/01/01 19:08:56;;;;;;;;;;;;;;;;;;4115278;28;79050;-57
2024/01/01 19:11:18;;;;;;;;;;;;;;;;;;4100350;28;14053;-57
2024/01/01 19:15:16;;;;;;;;;;;;;;;;;;4161312;27;13903;-58
2024/01/01 19:17:19;;;;;;;;;;;;;;;;;;4161400;28;1869;-59
2024/01/01 19:19:20;;;;;;;;;;;;;;;;;;4158344;28;2155;-57
